Time;durP1;ratioP1;P1;durP2;ratioP2;P2;SDS_P1;SDS_P2;PMS_P1;PMS_P2;Temp;Humidity;BMP_temperature;BMP_pressure;BME280_temperature;BME280_humidity;BME280_pressure;Samples;Min_cycle;Max_cycle;Signal;HPM_P1;HPM_P2
2021/06/24 00:02:09;;;;;;;13.82;10.15;;;;;;;29.59;45.52;99606.19;4484321;32;33969;-68
2021/06/24 00:04:37;;;;;;;14.95;10.98;;;;;;;29.59;45.50;99605.34;4484264;32;33388;-68
2021/06/24 00:07:04;;;;;;;17.20;10.70;;;;;;;29.58;45.53;99610.03;4484046;32;33872;-68
2021/06/24 00:09:32;;;;;;;16.62;10.60;;;;;;;29.56;45.58;99612.22;4484327;32;33590;-68
2021/06/24 00:11:59;;;;;;;14.77;10.50;;;;;;;29.55;45.64;99615.25;4483108;32;33450;-68
2021/06/24 00:14:27;;;;;;;16.42;11.60;;;;;;;29.55;45.64;99615.25;4484206;32;33478;-68
2021/06/24 00:16:55;;;;;;;15.77;10.68;;;;;;;29.53;45.69;99614.66;4484543;32;34724;-68
2021/06/24 00:19:23;;;;;;;14.93;11.88;;;;;;;29.51;45.65;99614.91;4484338;32;34013;-68
2021/06/24 00:21:50;;;;;;;14.30;10.82;;;;;;;29.52;45.76;99610.25;4483081;32;33949;-68
2021/06/24 00:24:18;;;;;;;15.48;10.52;;;;;;;29.49;45.74;99612.44;4483849;31;33547;-68
2021/06/24 00:26:46;;;;;;;16.40;10.90;;;;;;;29.48;45.73;99615.47;4484235;32;33931;-68
2021/06/24 00:29:13;;;;;;;16.83;10.70;;;;;;;29.45;45.75;99616.03;4484087;32;33823;-68
2021/06/24 00:31:41;;;;;;;15.57;11.15;;;;;;;29.45;45.70;99616.03;4484107;32;33635;-68
2021/06/24 00:34:09;;;;;;;20.30;11.50;;;;;;;29.44;45.72;99620.69;4484228;32;33397;-68
2021/06/24 00:36:36;;;;;;;15.57;10.77;;;;;;;29.44;45.74;99622.63;4484004;32;33522;-68
2021/06/24 00:39:04;;;;;;;13.20;10.55;;;;;;;29.43;45.79;99626.47;4484194;32;33937;-68
2021/06/24 00:41:32;;;;;;;16.23;11.27;;;;;;;29.41;45.78;99615.72;4483863;32;34013;-68
2021/06/24 00:44:00;;;;;;;16.73;10.95;;;;;;;29.41;45.84;99612.97;4482263;32;34177;-68
2021/06/24 00:46:28;;;;;;;13.68;11.07;;;;;;;29.40;45.88;99607.75;4484122;32;34548;-68
2021/06/24 00:48:58;;;;;;;16.25;11.23;;;;;;;29.40;45.87;99607.75;4484028;32;34624;-68
2021/06/24 00:51:26;;;;;;;16.37;11.07;;;;;;;29.38;45.96;99604.47;4480843;31;34528;-69
2021/06/24 00:53:55;;;;;;;20.20;11.45;;;;;;;29.36;46.04;99601.97;4484426;32;33361;-68
2021/06/24 00:56:27;;;;;;;17.48;11.57;;;;;;;29.35;46.11;99610.50;4484115;32;33799;-68
2021/06/24 00:58:55;;;;;;;15.82;11.35;;;;;;;29.34;46.17;99604.19;4483023;32;34681;-69
2021/06/24 01:01:23;;;;;;;14.35;11.20;;;;;;;29.33;46.24;99605.28;4469760;32;34517;-68
2021/06/24 01:03:51;;;;;;;16.30;11.77;;;;;;;29.32;46.21;99605.53;4484163;32;34267;-68
2021/06/24 01:06:18;;;;;;;14.15;10.98;;;;;;;29.31;46.20;99598.41;4484185;32;33511;-69
2021/06/24 01:08:46;;;;;;;15.85;11.68;;;;;;;29.31;46.22;99595.66;4481140;32;33857;-68
2021/06/24 01:11:14;;;;;;;16.73;12.02;;;;;;;29.29;46.25;99592.34;4483946;32;34015;-68
2021/06/24 01:13:45;;;;;;;15.05;11.18;;;;;;;29.29;46.29;99595.09;4483012;32;33532;-68
2021/06/24 01:16:13;;;;;;;18.95;11.45;;;;;;;29.27;46.31;99594.53;4483992;32;33883;-68
2021/06/24 01:18:41;;;;;;;14.45;11.10;;;;;;;29.28;46.25;99601.66;4483606;32;33848;-68
2021/06/24 01:21:10;;;;;;;14.40;11.32;;;;;;;29.26;46.26;99609.38;4484234;32;34690;-68
2021/06/24 01:23:40;;;;;;;15.60;10.95;;;;;;;29.25;46.19;99603.06;4483877;32;34134;-68
2021/06/24 01:26:08;;;;;;;15.15;11.35;;;;;;;29.24;46.28;99601.41;4484010;32;33642;-68
2021/06/24 01:28:36;;;;;;;17.95;12.05;;;;;;;29.25;46.26;99600.31;4482761;32;33807;-68
2021/06/24 01:31:04;;;;;;;15.70;11.20;;;;;;;29.24;46.21;99609.66;4483606;32;33760;-68
2021/06/24 01:33:31;;;;;;;17.40;11.60;;;;;;;29.22;46.24;99596.16;4482514;32;32977;-68
2021/06/24 01:36:01;;;;;;;14.85;11.02;;;;;;;29.21;46.22;99602.75;4483658;32;33807;-68
2021/06/24 01:38:29;;;;;;;12.45;11.12;;;;;;;29.20;46.22;99603.03;4483740;32;33473;-68
2021/06/24 01:40:58;;;;;;;18.33;11.73;;;;;;;29.19;46.15;99607.72;4482698;32;34359;-68
2021/06/24 01:43:26;;;;;;;13.62;11.45;;;;;;;29.20;46.19;99603.03;4483870;32;33397;-68
2021/06/24 01:45:57;;;;;;;19.17;11.02;;;;;;;29.17;46.19;99598.91;4483774;32;34457;-68
2021/06/24 01:48:25;;;;;;;;;;;;;;;29.16;46.25;99597.25;4482802;32;34222;-68
2021/06/24 01:50:53;;;;;;;14.52;11.35;;;;;;;29.26;46.00;99590.97;4482277;32;33654;-68
2021/06/24 01:53:21;;;;;;;16.80;11.40;;;;;;;29.16;46.23;99597.25;4483480;32;33564;-68
2021/06/24 01:55:49;;;;;;;14.57;11.93;;;;;;;29.14;46.32;99595.84;4482481;32;33733;-68
2021/06/24 01:58:21;;;;;;;15.32;11.20;;;;;;;29.11;46.36;99589.00;4483516;32;33975;-68
2021/06/24 02:00:51;;;;;;;15.93;11.77;;;;;;;29.10;46.41;99592.84;4483520;32;33907;-68
2021/06/24 02:03:20;;;;;;;15.73;11.43;;;;;;;29.08;46.51;99586.78;4483678;32;32410;-68
2021/06/24 02:05:52;;;;;;;16.20;12.18;;;;;;;29.09;46.43;99582.09;4483200;32;33724;-68
2021/06/24 02:08:22;;;;;;;15.95;12.10;;;;;;;29.07;46.54;99585.12;4481872;32;33804;-68
2021/06/24 02:10:55;;;;;;;16.73;11.73;;;;;;;29.05;46.54;99590.09;4483310;32;33768;-68
2021/06/24 02:13:23;;;;;;;;;;;;;;;29.04;46.60;99588.41;4482236;32;33363;-68
2021/06/24 02:15:51;;;;;;;14.87;11.23;;;;;;;29.16;46.28;99597.25;4482083;32;34137;-68
2021/06/24 02:18:31;;;;;;;16.95;11.32;;;;;;;29.07;46.45;99598.88;4483176;32;33869;-68
2021/06/24 02:21:00;;;;;;;17.85;12.43;;;;;;;29.05;46.51;99601.06;4481879;32;35054;-68
2021/06/24 02:23:28;;;;;;;15.57;12.18;;;;;;;29.05;46.51;99590.09;4482867;32;33230;-68
2021/06/24 02:25:57;;;;;;;17.02;12.10;;;;;;;29.03;46.55;99605.16;4481850;32;34508;-67
2021/06/24 02:28:25;;;;;;;19.10;12.02;;;;;;;29.02;46.60;99595.28;4476350;32;34925;-67
2021/06/24 02:30:53;;;;;;;19.23;12.70;;;;;;;29.02;46.81;99598.03;4479161;32;33584;-69
2021/06/24 02:33:21;;;;;;;19.02;12.48;;;;;;;29.02;46.92;99592.53;4480490;32;33559;-69
2021/06/24 02:35:54;;;;;;;23.38;12.37;;;;;;;29.04;46.99;99588.41;4482319;32;33742;-69
2021/06/24 02:38:23;;;;;;;21.40;12.82;;;;;;;29.06;46.93;99586.25;4467423;32;33846;-69
2021/06/24 02:40:52;;;;;;;18.77;11.88;;;;;;;29.08;46.88;99589.53;4474803;32;33792;-68
2021/06/24 02:43:20;;;;;;;20.85;12.52;;;;;;;29.11;46.82;99585.44;4480246;31;33317;-68
2021/06/24 02:45:47;;;;;;;21.50;12.70;;;;;;;29.12;46.79;99582.41;4487142;31;34425;-68
2021/06/24 02:48:16;;;;;;;20.37;12.77;;;;;;;29.15;46.77;99576.38;4482699;32;33818;-68
2021/06/24 02:50:44;;;;;;;16.87;13.20;;;;;;;29.18;46.67;99575.81;4482927;32;34549;-68
2021/06/24 02:53:12;;;;;;;16.90;12.18;;;;;;;29.17;46.69;99571.44;4482981;32;33489;-68
2021/06/24 02:55:43;;;;;;;13.62;11.95;;;;;;;29.21;46.67;99568.97;4482754;32;32307;-68
2021/06/24 02:58:11;;;;;;;19.50;12.48;;;;;;;29.21;46.61;99561.53;4491555;31;33990;-68
2021/06/24 03:00:39;;;;;;;17.33;12.75;;;;;;;29.25;46.48;99569.25;4498546;31;33429;-68
2021/06/24 03:03:08;;;;;;;16.67;11.93;;;;;;;29.25;46.50;99569.25;4484386;31;33404;-68
2021/06/24 03:05:46;;;;;;;17.73;12.02;;;;;;;29.25;46.53;99572.81;4498811;31;33540;-68
2021/06/24 03:08:15;;;;;;;20.95;13.20;;;;;;;29.27;46.54;99569.81;4500685;31;34744;-68
2021/06/24 03:10:47;;;;;;;17.60;12.35;;;;;;;29.27;46.60;99575.28;4486955;31;33873;-68
2021/06/24 03:13:15;;;;;;;16.37;12.18;;;;;;;29.28;46.55;99580.50;4500880;31;33336;-68
2021/06/24 03:15:43;;;;;;;16.80;12.02;;;;;;;29.30;46.61;99588.50;4486107;31;33922;-68
2021/06/24 03:18:11;;;;;;;16.70;12.13;;;;;;;29.30;46.51;99581.09;4500569;31;34754;-68
2021/06/24 03:20:39;;;;;;;22.00;12.37;;;;;;;29.30;46.50;99592.06;4500546;31;33789;-68
2021/06/24 03:23:06;;;;;;;18.92;12.37;;;;;;;29.33;46.49;99593.44;4500636;31;33402;-68
2021/06/24 03:25:35;;;;;;;18.48;11.88;;;;;;;29.31;46.54;99599.22;4500708;31;33777;-68
2021/06/24 03:28:03;;;;;;;19.12;12.65;;;;;;;29.32;46.55;99608.28;4486187;31;34000;-68
2021/06/24 03:30:32;;;;;;;18.30;11.90;;;;;;;29.33;46.60;99601.69;4486541;31;33604;-68
2021/06/24 03:33:02;;;;;;;15.93;11.93;;;;;;;29.35;46.59;99596.75;4483178;32;34084;-68
2021/06/24 03:35:30;;;;;;;22.25;13.00;;;;;;;29.34;46.57;99600.62;4476706;32;33764;-67
2021/06/24 03:37:58;;;;;;;19.48;12.85;;;;;;;29.35;46.54;99592.09;4484621;32;33816;-68
2021/06/24 03:40:26;;;;;;;17.00;11.60;;;;;;;29.35;46.57;99600.34;4485236;31;34078;-69
2021/06/24 03:42:56;;;;;;;15.40;12.07;;;;;;;29.36;46.57;99601.16;4477857;32;33583;-69
2021/06/24 03:45:24;;;;;;;16.00;12.27;;;;;;;29.36;46.56;99607.47;4484404;32;34445;-69
2021/06/24 03:47:52;;;;;;;13.95;11.68;;;;;;;29.36;46.56;99606.66;4498924;31;33808;-69
2021/06/24 03:50:20;;;;;;;13.95;11.70;;;;;;;29.36;46.61;99603.91;4500485;31;34445;-69
2021/06/24 03:52:47;;;;;;;17.92;11.52;;;;;;;29.37;46.55;99603.63;4500334;31;34801;-69
2021/06/24 03:55:34;;;;;;;20.37;12.35;;;;;;;29.38;46.53;99605.28;4500362;31;33777;-69
2021/06/24 03:58:07;;;;;;;17.12;11.80;;;;;;;29.39;46.47;99608.88;4487232;31;33686;-69
2021/06/24 04:00:38;;;;;;;18.85;12.30;;;;;;;29.40;46.48;99611.34;4483484;32;34583;-69
2021/06/24 04:03:06;;;;;;;20.95;12.13;;;;;;;29.40;46.50;99613.25;4483187;32;34087;-69
2021/06/24 04:05:34;;;;;;;19.42;12.43;;;;;;;29.40;46.54;99619.56;4483116;32;34037;-69
2021/06/24 04:08:03;;;;;;;17.95;11.95;;;;;;;29.41;46.62;99612.16;4483245;32;33606;-69
2021/06/24 04:10:50;;;;;;;17.40;11.65;;;;;;;29.40;46.59;99608.59;4484564;32;33717;-69
2021/06/24 04:13:20;;;;;;;17.20;12.55;;;;;;;29.45;46.57;99616.84;4484472;32;33469;-68
2021/06/24 04:15:48;;;;;;;19.45;12.95;;;;;;;29.43;46.71;99620.97;4484424;32;33892;-68
2021/06/24 04:18:16;;;;;;;21.02;12.65;;;;;;;29.43;46.70;99621.78;4483401;32;33544;-68
2021/06/24 04:20:44;;;;;;;18.92;11.50;;;;;;;29.42;46.78;99622.88;4483004;32;34921;-69
2021/06/24 04:23:12;;;;;;;18.77;11.82;;;;;;;29.42;46.86;99611.87;4484403;31;33430;-68
2021/06/24 04:25:40;;;;;;;25.58;12.20;;;;;;;29.43;46.84;99615.47;4484503;32;34006;-68
2021/06/24 04:28:08;;;;;;;20.10;12.88;;;;;;;29.43;46.82;99612.72;4484456;32;33860;-68
2021/06/24 04:30:38;;;;;;;21.67;13.02;;;;;;;29.42;46.85;99611.87;4483262;32;33617;-68
2021/06/24 04:33:06;;;;;;;18.90;12.05;;;;;;;29.44;46.81;99608.88;4484536;32;33085;-68
2021/06/24 04:35:36;;;;;;;18.00;12.70;;;;;;;29.43;46.75;99609.97;4482619;32;34615;-68
2021/06/24 04:38:05;;;;;;;18.98;12.65;;;;;;;29.43;46.72;99613.56;4484549;32;34487;-68
2021/06/24 04:40:33;;;;;;;18.90;13.35;;;;;;;29.45;46.73;99610.53;4484183;32;33590;-68
2021/06/24 04:43:01;;;;;;;16.17;12.95;;;;;;;29.44;46.76;99614.38;4482961;32;33182;-68
2021/06/24 04:45:32;;;;;;;17.37;12.52;;;;;;;29.44;46.88;99611.63;4484442;32;33404;-69
2021/06/24 04:48:00;;;;;;;19.67;13.15;;;;;;;29.44;46.73;99609.69;4484340;32;33967;-69
2021/06/24 04:50:29;;;;;;;15.55;11.68;;;;;;;29.44;46.71;99606.13;4484166;32;33711;-72
2021/06/24 04:52:57;;;;;;;15.32;12.75;;;;;;;29.46;46.57;99609.41;4484510;32;33320;-68
2021/06/24 04:55:24;;;;;;;23.50;13.25;;;;;;;29.45;46.60;99611.34;4483954;32;33781;-68
2021/06/24 04:57:53;;;;;;;24.02;12.75;;;;;;;29.46;46.74;99603.91;4482941;32;33489;-70
2021/06/24 05:00:25;;;;;;;19.70;13.07;;;;;;;29.46;46.80;99609.41;4484088;32;32300;-70
2021/06/24 05:02:55;;;;;;;21.05;12.52;;;;;;;29.47;46.75;99602.81;4482211;31;31777;-70
2021/06/24 05:05:23;;;;;;;15.43;13.35;;;;;;;29.48;46.69;99605.31;4483236;32;33817;-71
2021/06/24 05:07:52;;;;;;;15.57;12.10;;;;;;;29.48;46.66;99602.56;4482469;32;33735;-68
2021/06/24 05:10:21;;;;;;;17.98;12.77;;;;;;;29.49;46.63;99606.13;4468624;32;34624;-70
2021/06/24 05:12:49;;;;;;;18.80;12.63;;;;;;;29.48;46.60;99610.00;4482805;32;34092;-68
2021/06/24 05:15:16;;;;;;;18.33;11.40;;;;;;;29.49;46.55;99614.38;4482411;32;33168;-69
2021/06/24 05:17:44;;;;;;;16.85;12.73;;;;;;;29.49;46.51;99617.12;4482416;32;33567;-70
2021/06/24 05:20:12;;;;;;;16.52;12.68;;;;;;;29.49;46.48;99611.63;4482322;32;33700;-70
2021/06/24 05:22:40;;;;;;;14.43;12.18;;;;;;;29.49;46.47;99604.22;4482821;32;34309;-71
2021/06/24 05:25:09;;;;;;;19.25;12.35;;;;;;;29.49;46.39;99600.62;4483446;32;33850;-70
2021/06/24 05:27:37;;;;;;;;;;;;;;;29.50;46.35;99610.53;4484105;32;33914;-69
2021/06/24 05:30:05;;;;;;;14.87;11.23;;;;;;;29.64;46.03;99613.59;4483619;32;34004;-71
2021/06/24 05:32:32;;;;;;;17.48;12.10;;;;;;;29.54;46.19;99614.38;4483755;32;33215;-69
2021/06/24 05:35:00;;;;;;;14.40;11.85;;;;;;;29.52;46.24;99613.00;4487838;31;33896;-71
2021/06/24 05:37:28;;;;;;;13.48;12.02;;;;;;;29.52;46.21;99610.25;4499493;31;33906;-70
2021/06/24 05:39:55;;;;;;;15.43;11.75;;;;;;;29.52;46.22;99596.50;4499334;31;34742;-70
2021/06/24 05:42:23;;;;;;;15.00;11.77;;;;;;;29.52;46.19;99593.75;4499455;31;33079;-70
2021/06/24 05:44:50;;;;;;;18.42;11.75;;;;;;;29.52;46.14;99600.09;4499426;31;33559;-71
2021/06/24 05:47:18;;;;;;;15.13;11.80;;;;;;;29.53;46.14;99598.19;4499315;31;33785;-71
2021/06/24 05:49:46;;;;;;;15.25;11.82;;;;;;;29.53;46.10;99595.44;4499345;31;33782;-70
2021/06/24 05:52:14;;;;;;;14.23;10.77;;;;;;;29.53;46.10;99596.25;4499369;31;33028;-69
2021/06/24 05:54:42;;;;;;;13.23;10.85;;;;;;;29.53;46.13;99593.50;4499240;31;33825;-70
2021/06/24 05:57:10;;;;;;;13.62;10.77;;;;;;;29.54;46.11;99594.31;4499364;31;33563;-70
2021/06/24 05:59:37;;;;;;;14.82;11.55;;;;;;;29.54;46.09;99591.56;4499239;31;33542;-69
2021/06/24 06:02:05;;;;;;;12.93;10.93;;;;;;;29.55;46.04;99591.31;4499264;31;33320;-70
2021/06/24 06:04:33;;;;;;;14.30;11.07;;;;;;;29.54;46.03;99595.16;4499307;31;33869;-70
2021/06/24 06:07:00;;;;;;;14.95;11.40;;;;;;;29.54;46.00;99595.16;4477600;32;33867;-68
2021/06/24 06:09:28;;;;;;;15.25;11.75;;;;;;;29.55;46.02;99596.00;4483326;31;33873;-68
2021/06/24 06:11:56;;;;;;;16.95;10.45;;;;;;;29.55;46.02;99596.81;4483192;32;33615;-69
2021/06/24 06:14:24;;;;;;;13.27;11.20;;;;;;;29.55;45.97;99594.06;4483146;32;34674;-68
2021/06/24 06:16:51;;;;;;;11.65;10.45;;;;;;;29.56;45.99;99603.13;4483219;32;34167;-69
2021/06/24 06:19:19;;;;;;;15.13;11.77;;;;;;;29.56;45.96;99608.62;4483127;32;34736;-68
2021/06/24 06:21:47;;;;;;;16.52;11.02;;;;;;;29.56;45.95;99605.88;4482893;32;33946;-69
2021/06/24 06:24:14;;;;;;;12.77;10.57;;;;;;;29.55;45.91;99602.31;4483328;32;34655;-68
2021/06/24 06:26:42;;;;;;;17.65;11.50;;;;;;;29.56;45.89;99606.72;4482944;32;34766;-67
2021/06/24 06:29:18;;;;;;;12.27;10.48;;;;;;;29.56;45.87;99605.88;4498677;31;35192;-69
2021/06/24 06:31:46;;;;;;;12.70;10.25;;;;;;;29.57;45.85;99602.88;4498794;31;33487;-69
2021/06/24 06:34:14;;;;;;;12.23;10.07;;;;;;;29.56;45.84;99609.47;4498554;31;34552;-69
2021/06/24 06:36:41;;;;;;;12.95;10.80;;;;;;;29.56;45.81;99614.97;4483501;31;34770;-68
2021/06/24 06:39:09;;;;;;;12.35;10.18;;;;;;;29.56;45.81;99612.22;4482779;32;33879;-69
2021/06/24 06:41:36;;;;;;;14.60;11.15;;;;;;;29.57;45.79;99610.31;4484214;32;33979;-68
2021/06/24 06:44:04;;;;;;;14.02;10.35;;;;;;;29.57;45.80;99616.62;4484739;32;34088;-68
2021/06/24 06:46:32;;;;;;;15.02;10.80;;;;;;;29.56;45.79;99614.97;4484829;32;33689;-69
2021/06/24 06:49:00;;;;;;;13.40;10.00;;;;;;;29.57;45.80;99624.06;4484996;32;33576;-68
2021/06/24 06:51:28;;;;;;;12.70;10.35;;;;;;;29.58;45.78;99620.22;4484849;32;33597;-67
2021/06/24 06:53:56;;;;;;;14.10;11.18;;;;;;;29.57;45.77;99619.37;4484986;32;33936;-68
2021/06/24 06:56:23;;;;;;;12.85;10.10;;;;;;;29.57;45.76;99621.31;4484926;32;34915;-68
2021/06/24 06:58:52;;;;;;;13.62;10.40;;;;;;;29.58;45.74;99629.28;4484722;32;34718;-68
2021/06/24 07:01:20;;;;;;;14.93;11.10;;;;;;;29.59;45.69;99630.09;4485099;32;34502;-68
2021/06/24 07:03:47;;;;;;;11.73;10.48;;;;;;;29.60;45.66;99632.56;4484748;32;33857;-68
2021/06/24 07:06:16;;;;;;;13.00;9.38;;;;;;;29.60;45.65;99634.50;4484732;32;33727;-67
2021/06/24 07:08:43;;;;;;;12.77;10.20;;;;;;;29.60;45.67;99629.81;4484735;32;33721;-68
2021/06/24 07:11:11;;;;;;;12.30;10.15;;;;;;;29.60;45.67;99629.81;4484845;32;33666;-68
2021/06/24 07:13:39;;;;;;;13.62;10.73;;;;;;;29.62;45.66;99635.87;4484791;32;33568;-68
2021/06/24 07:16:07;;;;;;;12.88;10.32;;;;;;;29.62;45.63;99626.81;4484737;32;34844;-68
2021/06/24 07:18:36;;;;;;;13.70;10.40;;;;;;;29.63;45.60;99626.53;4485060;32;33759;-68
2021/06/24 07:21:04;;;;;;;14.43;10.02;;;;;;;29.64;45.67;99622.69;4484741;32;33329;-66
2021/06/24 07:23:32;;;;;;;12.85;9.80;;;;;;;29.66;45.62;99622.44;4484643;31;33944;-69
2021/06/24 07:26:02;;;;;;;12.35;10.07;;;;;;;29.66;45.61;99628.75;4484563;32;34980;-68
2021/06/24 07:28:30;;;;;;;13.15;10.23;;;;;;;29.67;45.57;99621.31;4500649;31;33841;-68
2021/06/24 07:30:57;;;;;;;11.02;9.93;;;;;;;29.67;45.57;99618.56;4500787;31;34142;-67
2021/06/24 07:33:25;;;;;;;12.02;9.95;;;;;;;29.67;45.59;99619.41;4500252;31;34610;-67
2021/06/24 07:35:53;;;;;;;12.50;9.55;;;;;;;29.68;45.59;99617.47;4490395;31;34307;-68
2021/06/24 07:38:21;;;;;;;11.93;9.68;;;;;;;29.69;45.56;99628.19;4484631;32;33748;-67
2021/06/24 07:40:48;;;;;;;12.60;9.68;;;;;;;29.70;45.58;99621.63;4484397;32;33477;-68
2021/06/24 07:43:16;;;;;;;11.57;9.85;;;;;;;29.70;45.58;99624.38;4484638;32;33869;-68
2021/06/24 07:45:43;;;;;;;12.00;9.68;;;;;;;29.70;45.56;99624.38;4484579;32;33707;-68
2021/06/24 07:48:11;;;;;;;13.27;9.43;;;;;;;29.72;45.52;99622.16;4484467;32;33976;-67
2021/06/24 07:50:39;;;;;;;12.98;9.88;;;;;;;29.71;45.50;99614.19;4484623;32;33510;-68
2021/06/24 07:53:09;;;;;;;;;;;;;;;29.71;45.55;99619.69;4484675;32;33719;-67
2021/06/24 07:55:37;;;;;;;11.70;9.60;;;;;;;29.84;45.23;99613.63;4484401;32;34142;-68
2021/06/24 07:58:06;;;;;;;12.55;9.75;;;;;;;29.74;45.41;99608.94;4484501;32;34625;-66
2021/06/24 08:00:34;;;;;;;11.75;9.35;;;;;;;29.73;45.48;99617.47;4471756;32;33713;-68
2021/06/24 08:03:14;;;;;;;11.52;9.18;;;;;;;29.72;45.47;99613.91;4484596;32;33764;-68
2021/06/24 08:05:41;;;;;;;12.25;9.43;;;;;;;29.72;45.50;99613.06;4484575;32;34319;-68
2021/06/24 08:08:09;;;;;;;11.18;9.38;;;;;;;29.73;45.53;99611.97;4484382;32;34583;-69
2021/06/24 08:10:37;;;;;;;14.75;9.55;;;;;;;29.72;45.53;99605.66;4484498;32;32909;-69
2021/06/24 08:13:04;;;;;;;11.45;9.60;;;;;;;29.74;45.54;99608.12;4498281;31;33782;-68
2021/06/24 08:15:32;;;;;;;11.85;9.00;;;;;;;29.74;45.53;99602.63;4500310;31;33652;-68
2021/06/24 08:18:00;;;;;;;11.70;9.77;;;;;;;29.74;45.53;99602.63;4487941;31;34586;-67
2021/06/24 08:20:28;;;;;;;9.88;8.88;;;;;;;29.74;45.53;99603.44;4484404;32;33483;-68
2021/06/24 08:22:56;;;;;;;9.52;8.63;;;;;;;29.75;45.54;99598.75;4484273;32;33658;-68
2021/06/24 08:25:24;;;;;;;10.52;9.35;;;;;;;29.76;45.52;99591.38;4484305;32;34422;-69
2021/06/24 08:27:52;;;;;;;11.85;9.63;;;;;;;29.76;45.51;99596.87;4482811;32;34936;-68
2021/06/24 08:30:20;;;;;;;10.85;8.85;;;;;;;29.76;45.52;99600.44;4484182;32;33310;-69
2021/06/24 08:32:48;;;;;;;10.90;9.57;;;;;;;29.76;45.51;99596.87;4482925;32;34405;-68
2021/06/24 08:35:18;;;;;;;12.63;8.88;;;;;;;29.78;45.45;99597.41;4490484;31;33728;-68
2021/06/24 08:37:47;;;;;;;10.85;9.32;;;;;;;29.77;45.44;99601.25;4500022;31;34948;-68
2021/06/24 08:40:15;;;;;;;10.35;9.13;;;;;;;29.77;45.47;99595.75;4499990;31;33600;-69
2021/06/24 08:42:43;;;;;;;10.80;9.05;;;;;;;29.77;45.44;99595.75;4500086;31;34847;-68
2021/06/24 08:45:11;;;;;;;11.55;9.30;;;;;;;29.77;45.44;99598.50;4485608;31;34074;-68
2021/06/24 08:47:44;;;;;;;9.95;8.80;;;;;;;29.77;45.44;99595.75;4499949;31;33546;-67
2021/06/24 08:50:13;;;;;;;12.02;9.80;;;;;;;29.77;45.45;99596.59;4500112;31;33365;-68
2021/06/24 08:52:45;;;;;;;10.50;9.07;;;;;;;29.77;45.42;99596.59;4499611;31;33874;-67
2021/06/24 08:55:13;;;;;;;14.30;9.65;;;;;;;29.77;45.40;99595.75;4483250;32;33379;-66
2021/06/24 08:57:41;;;;;;;11.18;9.13;;;;;;;29.78;45.41;99592.72;4483900;32;34710;-65
2021/06/24 09:00:09;;;;;;;10.15;9.05;;;;;;;29.78;45.41;99589.97;4482665;32;33563;-68
2021/06/24 09:02:37;;;;;;;10.48;9.07;;;;;;;29.77;45.43;99590.25;4483827;32;33495;-67
2021/06/24 09:05:06;;;;;;;12.13;9.35;;;;;;;29.78;45.38;99595.47;4483186;32;33824;-68
2021/06/24 09:07:46;;;;;;;9.93;8.70;;;;;;;29.77;45.37;99588.34;4483970;32;33402;-68
2021/06/24 09:10:14;;;;;;;11.77;9.15;;;;;;;29.79;45.37;99594.38;4483746;32;33105;-68
2021/06/24 09:12:56;;;;;;;10.18;9.18;;;;;;;29.78;45.41;99603.72;4484060;32;33827;-68
2021/06/24 09:15:24;;;;;;;10.63;8.90;;;;;;;29.79;45.36;99599.88;4483879;32;33841;-68
2021/06/24 09:17:53;;;;;;;10.70;8.80;;;;;;;29.78;45.36;99591.91;4484095;32;34563;-68
2021/06/24 09:20:40;;;;;;;12.35;8.75;;;;;;;29.79;45.37;99593.56;4483956;32;33332;-68
2021/06/24 09:23:16;;;;;;;10.10;8.98;;;;;;;29.81;45.33;99594.94;4483948;32;34014;-68
2021/06/24 09:25:45;;;;;;;10.48;9.07;;;;;;;29.77;45.39;99599.34;4483579;32;34759;-68
2021/06/24 09:28:13;;;;;;;12.82;8.95;;;;;;;29.78;45.37;99594.66;4483649;32;34772;-67
2021/06/24 09:30:43;;;;;;;9.60;8.50;;;;;;;29.79;45.33;99594.38;4483855;32;33286;-67
2021/06/24 09:33:15;;;;;;;9.88;8.63;;;;;;;29.77;45.36;99588.34;4482627;32;33465;-68
2021/06/24 09:35:53;;;;;;;9.40;8.35;;;;;;;29.78;45.34;99580.91;4492583;31;33708;-67
2021/06/24 09:38:21;;;;;;;11.15;8.90;;;;;;;29.80;45.28;99575.94;4499675;31;34389;-68
2021/06/24 09:40:53;;;;;;;11.40;8.55;;;;;;;29.78;45.31;99575.41;4499346;31;33288;-68
2021/06/24 09:43:26;;;;;;;10.55;9.45;;;;;;;29.78;45.33;99575.41;4499535;31;33751;-68
2021/06/24 09:46:14;;;;;;;11.10;8.60;;;;;;;29.80;45.32;99564.94;4499402;31;34658;-68
2021/06/24 09:48:46;;;;;;;10.63;8.60;;;;;;;29.80;45.27;99568.53;4499664;31;34506;-68
2021/06/24 09:51:22;;;;;;;10.15;8.77;;;;;;;29.79;45.29;99552.28;4498020;31;32882;-68
2021/06/24 09:53:51;;;;;;;11.85;8.98;;;;;;;29.78;45.34;99545.97;4498932;31;33981;-68
2021/06/24 09:56:44;;;;;;;10.05;8.50;;;;;;;29.78;45.34;99539.66;4499220;31;34622;-68
2021/06/24 09:59:14;;;;;;;10.25;8.85;;;;;;;29.82;45.27;99540.75;4499183;31;33842;-68
2021/06/24 10:01:46;;;;;;;10.85;8.73;;;;;;;29.77;45.36;99538.81;4499300;31;34004;-67
2021/06/24 10:04:21;;;;;;;9.52;8.27;;;;;;;29.78;45.36;99550.66;4499316;31;35002;-68
2021/06/24 10:06:50;;;;;;;9.73;7.95;;;;;;;29.80;45.30;99545.69;4499015;31;33839;-68
2021/06/24 10:09:18;;;;;;;9.90;7.40;;;;;;;29.78;45.29;99534.97;4498820;31;33473;-68
2021/06/24 10:11:45;;;;;;;9.68;7.85;;;;;;;29.79;45.25;99539.38;4499096;31;33310;-68
2021/06/24 10:14:16;;;;;;;8.65;7.68;;;;;;;29.79;45.24;99527.53;4499124;31;34722;-67
2021/06/24 10:16:48;;;;;;;9.35;7.90;;;;;;;29.79;45.23;99528.37;4490321;31;34953;-68
2021/06/24 10:19:17;;;;;;;9.95;8.73;;;;;;;29.79;45.24;99522.03;4484860;32;34185;-68
2021/06/24 10:21:49;;;;;;;9.57;7.85;;;;;;;29.79;45.21;99527.53;4485009;32;34441;-68
2021/06/24 10:24:19;;;;;;;10.43;8.10;;;;;;;29.80;45.22;99531.94;4465470;32;34389;-68
2021/06/24 10:26:49;;;;;;;11.10;8.57;;;;;;;29.79;45.24;99519.28;4471508;32;33604;-68
2021/06/24 10:29:18;;;;;;;10.63;8.07;;;;;;;29.80;45.22;99515.44;4470717;32;34422;-67
2021/06/24 10:31:50;;;;;;;11.40;8.18;;;;;;;29.80;45.22;99516.28;4484768;32;34005;-68
2021/06/24 10:34:20;;;;;;;9.73;7.80;;;;;;;29.80;45.21;99510.78;4499484;31;33729;-68
2021/06/24 10:37:10;;;;;;;9.38;8.23;;;;;;;29.80;45.19;99505.28;4494414;31;33713;-68
2021/06/24 10:39:39;;;;;;;9.85;7.70;;;;;;;29.83;45.13;99512.97;4469391;32;34536;-68
2021/06/24 10:42:09;;;;;;;9.70;7.75;;;;;;;29.79;45.21;99509.12;4468180;32;33055;-68
2021/06/24 10:44:43;;;;;;;10.15;7.82;;;;;;;29.79;45.23;99502.78;4475812;32;33772;-68
2021/06/24 10:47:11;;;;;;;9.48;7.68;;;;;;;29.81;45.18;99506.94;4484926;32;34592;-68
2021/06/24 10:49:38;;;;;;;11.43;8.52;;;;;;;29.82;45.20;99513.25;4484503;32;34729;-69
2021/06/24 10:52:25;;;;;;;9.35;7.68;;;;;;;29.81;45.21;99508.84;4484070;32;33352;-68
2021/06/24 10:54:53;;;;;;;10.27;8.18;;;;;;;29.82;45.16;99505.00;4487099;31;33753;-70
2021/06/24 10:57:37;;;;;;;10.05;8.05;;;;;;;29.80;45.18;99504.44;4480319;32;33886;-68
2021/06/24 11:00:33;;;;;;;8.77;7.87;;;;;;;29.83;45.13;99514.91;4484194;32;33962;-70
2021/06/24 11:03:02;;;;;;;9.38;7.55;;;;;;;29.83;45.10;99507.47;4482484;32;34161;-70
2021/06/24 11:05:34;;;;;;;9.27;8.20;;;;;;;29.80;45.19;99512.69;4483488;32;33821;-70
2021/06/24 11:08:11;;;;;;;9.10;7.95;;;;;;;29.81;45.18;99508.84;4481167;32;34716;-68
2021/06/24 11:11:00;;;;;;;10.43;7.97;;;;;;;29.82;45.16;99499.50;4482896;32;34004;-70
2021/06/24 11:13:44;;;;;;;10.00;7.68;;;;;;;29.84;45.10;99506.34;4483937;32;33181;-67
2021/06/24 11:16:21;;;;;;;8.52;7.60;;;;;;;29.81;45.12;99503.34;4483199;32;33776;-70
2021/06/24 11:19:11;;;;;;;9.68;7.55;;;;;;;29.80;45.16;99504.44;4484927;32;34584;-70
2021/06/24 11:21:39;;;;;;;9.80;7.22;;;;;;;29.80;45.19;99498.94;4484033;32;33416;-69
2021/06/24 11:24:06;;;;;;;9.30;7.90;;;;;;;29.80;45.19;99510.78;4484664;32;33286;-69
2021/06/24 11:26:40;;;;;;;10.02;7.60;;;;;;;29.82;45.18;99505.00;4483337;32;34541;-70
2021/06/24 11:29:11;;;;;;;9.25;8.00;;;;;;;29.80;45.23;99502.53;4483321;32;34857;-70
2021/06/24 11:32:05;;;;;;;9.10;7.60;;;;;;;29.82;45.17;99507.75;4483265;32;34333;-70
2021/06/24 11:37:09;;;;;;;8.18;7.30;;;;;;;29.81;45.18;99503.34;4482568;32;33803;-70